Time;durP1;ratioP1;P1;durP2;ratioP2;P2;SDS_P1;SDS_P2;PMS_P1;PMS_P2;Temp;Humidity;BMP_temperature;BMP_pressure;BME280_temperature;BME280_humidity;BME280_pressure;Samples;Min_cycle;Max_cycle;Signal;HPM_P1;HPM_P2
2022/02/16 00:02:04;;;;;;;0.10;0.10;;;;;;;11.13;70.97;100332.75;5016479;28;20135;-79
2022/02/16 00:04:31;;;;;;;0.10;0.10;;;;;;;11.14;70.96;100334.47;5013263;28;20427;-79
2022/02/16 00:06:57;;;;;;;0.20;0.20;;;;;;;11.15;71.25;100342.41;5012798;28;20033;-79
2022/02/16 00:09:23;;;;;;;0.35;0.35;;;;;;;11.09;71.26;100331.09;5015443;28;20087;-79
2022/02/16 00:11:49;;;;;;;0.00;0.00;;;;;;;11.12;71.12;100325.72;5014730;28;20084;-79
2022/02/16 00:14:16;;;;;;;0.10;0.10;;;;;;;11.03;71.26;100318.03;5015087;28;20056;-78
2022/02/16 00:16:42;;;;;;;0.28;0.28;;;;;;;11.09;71.69;100317.84;5015590;28;20029;-78
2022/02/16 00:19:09;;;;;;;0.10;0.10;;;;;;;11.03;71.86;100315.38;5015259;28;20109;-79
2022/02/16 00:21:35;;;;;;;0.10;0.10;;;;;;;11.12;71.17;100315.09;5015323;28;20104;-79
2022/02/16 00:24:01;;;;;;;0.30;0.30;;;;;;;11.09;71.33;100299.28;5017792;28;20030;-78
2022/02/16 00:26:28;;;;;;;0.00;0.00;;;;;;;10.91;71.77;100295.41;5017113;28;20091;-78
2022/02/16 00:28:54;;;;;;;0.20;0.20;;;;;;;11.02;71.99;100303.06;5012359;28;20496;-83
2022/02/16 00:31:20;;;;;;;0.10;0.10;;;;;;;11.04;71.79;100295.91;5012665;28;20037;-78
2022/02/16 00:33:46;;;;;;;0.10;0.10;;;;;;;11.06;71.40;100296.72;5015163;28;20117;-83
2022/02/16 00:36:12;;;;;;;0.10;0.10;;;;;;;11.09;71.52;100293.97;5014811;28;20030;-79
2022/02/16 00:38:39;;;;;;;0.52;0.52;;;;;;;10.97;72.02;100296.09;5014957;28;20485;-80
2022/02/16 00:41:05;;;;;;;0.10;0.10;;;;;;;11.08;71.33;100292.22;5017172;28;20026;-80
2022/02/16 00:43:31;;;;;;;0.05;0.05;;;;;;;10.99;71.73;100285.44;5012501;28;20033;-80
2022/02/16 00:45:58;;;;;;;0.03;0.03;;;;;;;11.10;71.59;100279.81;5009739;28;20127;-80
2022/02/16 00:48:24;;;;;;;0.10;0.10;;;;;;;11.13;71.73;100280.59;5014481;28;20030;-78
2022/02/16 00:50:51;;;;;;;0.10;0.10;;;;;;;11.05;71.77;100273.78;5016561;28;20034;-79
2022/02/16 00:53:17;;;;;;;0.10;0.10;;;;;;;11.15;71.15;100259.31;5010275;28;20177;-78
2022/02/16 00:55:43;;;;;;;0.10;0.10;;;;;;;11.13;71.39;100262.03;5016278;28;20022;-77
2022/02/16 00:58:09;;;;;;;0.10;0.10;;;;;;;11.11;71.23;100257.69;5018832;28;20032;-78
2022/02/16 01:00:36;;;;;;;0.40;0.40;;;;;;;11.12;71.40;100251.47;5013662;28;20045;-80
2022/02/16 01:03:02;;;;;;;0.13;0.13;;;;;;;11.16;71.21;100238.06;5018910;28;20515;-78
2022/02/16 01:05:28;;;;;;;0.10;0.10;;;;;;;11.14;71.40;100231.94;5016174;28;20061;-80
2022/02/16 01:07:55;;;;;;;0.20;0.20;;;;;;;11.13;71.50;100221.41;5016002;28;20030;-82
2022/02/16 01:10:21;;;;;;;0.10;0.10;;;;;;;11.12;71.49;100219.66;5013063;28;20030;-79
2022/02/16 01:12:47;;;;;;;0.10;0.10;;;;;;;11.09;71.25;100219.75;5015881;28;20034;-82
2022/02/16 01:15:13;;;;;;;0.10;0.10;;;;;;;11.14;71.35;100221.34;5013171;28;20026;-79
2022/02/16 01:17:41;;;;;;;0.10;0.10;;;;;;;11.14;71.26;100212.50;5018722;28;20048;-79
2022/02/16 01:20:10;;;;;;;0.10;0.10;;;;;;;11.12;71.25;100214.34;5018827;28;20026;-78
2022/02/16 01:22:37;;;;;;;0.75;0.60;;;;;;;11.06;71.58;100212.75;5016260;28;20036;-81
2022/02/16 01:25:03;;;;;;;0.10;0.10;;;;;;;11.17;71.13;100199.16;5015317;28;20034;-81
2022/02/16 01:27:29;;;;;;;0.10;0.10;;;;;;;11.12;70.85;100203.75;5018758;28;20022;-78
2022/02/16 01:29:55;;;;;;;1.08;1.08;;;;;;;11.17;71.08;100199.16;5015635;28;20048;-80
2022/02/16 01:32:22;;;;;;;1.25;0.63;;;;;;;11.12;71.29;100193.16;5015816;28;20075;-79
2022/02/16 01:34:49;;;;;;;0.10;0.10;;;;;;;11.12;71.35;100182.53;5018175;28;20393;-80
2022/02/16 01:37:22;;;;;;;0.10;0.10;;;;;;;11.11;71.46;100170.19;5013041;28;20030;-79
2022/02/16 01:39:48;;;;;;;0.90;0.57;;;;;;;11.18;71.01;100169.09;5025394;28;20046;-78
2022/02/16 01:42:20;;;;;;;0.10;0.10;;;;;;;11.16;71.79;100157.66;5015071;28;20026;-80
2022/02/16 01:44:46;;;;;;;0.30;0.30;;;;;;;11.15;71.63;100158.56;5013609;28;20093;-79
2022/02/16 01:47:13;;;;;;;0.10;0.10;;;;;;;11.17;71.84;100154.09;5015308;28;20041;-80
2022/02/16 01:49:40;;;;;;;0.00;0.00;;;;;;;11.22;71.63;100151.28;5014543;28;20118;-80
2022/02/16 01:52:18;;;;;;;0.13;0.13;;;;;;;11.17;71.92;100148.78;5017365;28;20373;-77
2022/02/16 01:54:52;;;;;;;0.00;0.00;;;;;;;11.18;71.82;100124.00;5014352;28;20212;-82
2022/02/16 01:57:22;;;;;;;0.10;0.10;;;;;;;11.24;72.10;100114.97;5013283;28;20081;-79
2022/02/16 01:59:52;;;;;;;0.55;0.55;;;;;;;11.28;71.53;100109.50;5015140;28;20151;-78
2022/02/16 02:02:18;;;;;;;0.63;0.63;;;;;;;11.20;72.01;100114.19;5015116;28;20030;-79
2022/02/16 02:04:48;;;;;;;0.10;0.10;;;;;;;11.08;72.25;100111.97;5018459;28;20477;-79
2022/02/16 02:07:14;;;;;;;0.08;0.08;;;;;;;11.16;71.83;100107.28;5017949;28;20108;-79
2022/02/16 02:09:41;;;;;;;0.10;0.10;;;;;;;11.24;72.08;100105.22;5018183;28;20501;-80
2022/02/16 02:12:08;;;;;;;0.10;0.10;;;;;;;11.17;72.28;100098.41;5014578;28;20037;-78
2022/02/16 02:14:34;;;;;;;0.10;0.10;;;;;;;11.25;72.09;100096.38;5014522;28;20038;-79
2022/02/16 02:17:00;;;;;;;0.10;0.10;;;;;;;11.15;72.23;100084.31;5019698;28;20025;-82
2022/02/16 02:19:27;;;;;;;0.10;0.10;;;;;;;11.19;72.33;100088.63;5027460;28;20030;-79
2022/02/16 02:21:54;;;;;;;0.00;0.00;;;;;;;11.24;72.32;100083.13;5031827;28;20038;-80
2022/02/16 02:24:20;;;;;;;0.10;0.10;;;;;;;11.23;72.18;100073.47;5015037;28;20021;-78
2022/02/16 02:26:46;;;;;;;0.10;0.10;;;;;;;11.34;72.15;100073.97;5021725;28;20362;-80
2022/02/16 02:29:14;;;;;;;0.10;0.10;;;;;;;11.34;72.56;100076.59;5027551;28;20385;-79
2022/02/16 02:31:41;;;;;;;0.20;0.20;;;;;;;11.23;72.52;100066.38;5020790;28;20033;-79
2022/02/16 02:34:07;;;;;;;0.20;0.20;;;;;;;11.26;72.01;100084.81;5015043;28;20392;-78
2022/02/16 02:36:34;;;;;;;0.15;0.15;;;;;;;11.28;72.44;100077.69;5016395;28;20128;-79
2022/02/16 02:39:00;;;;;;;0.10;0.10;;;;;;;11.23;72.77;100074.31;5023696;28;20518;-82
2022/02/16 02:41:27;;;;;;;0.32;0.32;;;;;;;11.35;72.07;100069.50;5021864;28;20037;-79
2022/02/16 02:43:53;;;;;;;4.47;0.77;;;;;;;11.36;72.27;100057.97;5014956;28;20117;-79
2022/02/16 02:46:20;;;;;;;0.10;0.10;;;;;;;11.32;72.63;100060.72;5016565;28;20124;-79
2022/02/16 02:48:46;;;;;;;0.10;0.10;;;;;;;11.33;72.39;100054.50;5021095;28;20033;-80
2022/02/16 02:51:15;;;;;;;0.10;0.10;;;;;;;11.32;72.31;100051.91;5023764;28;20025;-80
2022/02/16 02:53:42;;;;;;;0.10;0.10;;;;;;;11.26;72.90;100052.13;5015406;28;20126;-81
2022/02/16 02:56:09;;;;;;;0.30;0.30;;;;;;;11.30;72.32;100028.13;5027415;28;20029;-81
2022/02/16 02:58:36;;;;;;;1.17;1.05;;;;;;;11.31;72.50;100021.91;5018308;28;20042;-79
2022/02/16 03:01:03;;;;;;;1.35;0.35;;;;;;;11.42;71.96;100028.59;5025683;28;20033;-79
2022/02/16 03:03:32;;;;;;;0.10;0.10;;;;;;;11.28;72.79;100014.03;5014036;28;20026;-79
2022/02/16 03:05:58;;;;;;;0.10;0.10;;;;;;;11.33;72.62;100019.19;5023115;28;20029;-79
2022/02/16 03:08:24;;;;;;;0.10;0.10;;;;;;;11.21;72.56;100016.97;5030335;28;20083;-79
2022/02/16 03:10:50;;;;;;;0.10;0.10;;;;;;;11.31;72.17;100019.25;5020858;28;20431;-78
2022/02/16 03:13:20;;;;;;;0.10;0.10;;;;;;;11.40;72.45;100001.25;5025533;28;20091;-81
2022/02/16 03:15:51;;;;;;;0.10;0.10;;;;;;;11.40;72.31;99987.97;5018464;28;20042;-80
2022/02/16 03:18:20;;;;;;;0.10;0.10;;;;;;;11.29;72.43;99989.25;5023516;28;20135;-80
2022/02/16 03:20:48;;;;;;;0.73;0.35;;;;;;;11.35;72.29;99988.16;5025884;28;20389;-79
2022/02/16 03:23:16;;;;;;;0.10;0.10;;;;;;;11.45;71.95;99989.56;5023217;28;20040;-79
2022/02/16 03:25:42;;;;;;;0.20;0.20;;;;;;;11.26;72.31;99984.03;5019234;28;20068;-78
2022/02/16 03:28:08;;;;;;;0.10;0.10;;;;;;;11.31;71.96;99974.16;5029215;28;20139;-79
2022/02/16 03:30:34;;;;;;;0.10;0.10;;;;;;;11.35;72.15;99974.03;5028439;28;20029;-78
2022/02/16 03:33:04;;;;;;;0.75;0.75;;;;;;;11.32;72.09;99956.44;5022460;28;20480;-79
2022/02/16 03:35:31;;;;;;;0.20;0.20;;;;;;;11.27;72.16;99955.75;5020791;28;20021;-80
2022/02/16 03:37:57;;;;;;;0.05;0.05;;;;;;;11.20;72.13;99941.00;5028339;28;20060;-78
2022/02/16 03:40:24;;;;;;;0.10;0.10;;;;;;;11.27;72.07;99938.06;5029461;28;20540;-78
2022/02/16 03:42:50;;;;;;;2.53;0.75;;;;;;;11.25;72.01;99929.31;5019018;28;20057;-80
2022/02/16 03:45:20;;;;;;;0.13;0.13;;;;;;;11.37;71.43;99921.81;5022535;28;20060;-79
2022/02/16 03:47:46;;;;;;;0.30;0.30;;;;;;;11.32;71.32;99914.03;5025126;28;20389;-79
2022/02/16 03:50:13;;;;;;;0.10;0.10;;;;;;;11.24;71.79;99905.47;5014763;28;20432;-78
2022/02/16 03:52:40;;;;;;;0.10;0.10;;;;;;;11.28;71.79;99912.41;5012639;28;20126;-79
2022/02/16 03:55:07;;;;;;;0.10;0.10;;;;;;;11.15;71.36;99904.91;5012515;28;20397;-78
2022/02/16 03:57:33;;;;;;;0.05;0.05;;;;;;;11.23;71.57;99914.38;5019250;28;20033;-78
2022/02/16 03:59:59;;;;;;;0.20;0.20;;;;;;;11.19;71.40;99903.03;5029436;28;20044;-79
2022/02/16 04:02:26;;;;;;;0.08;0.08;;;;;;;11.29;71.47;99899.09;5017267;28;20033;-78
2022/02/16 04:04:52;;;;;;;0.10;0.10;;;;;;;11.16;72.03;99887.22;5025213;28;20084;-78
2022/02/16 04:07:18;;;;;;;1.75;0.57;;;;;;;11.33;71.68;99878.63;5012727;28;20038;-77
2022/02/16 04:09:44;;;;;;;0.10;0.10;;;;;;;11.33;71.71;99874.16;5016139;28;20034;-77
2022/02/16 04:12:11;;;;;;;0.63;0.63;;;;;;;11.24;72.30;99869.25;5024436;28;20044;-78
2022/02/16 04:14:38;;;;;;;2.15;2.05;;;;;;;11.27;72.24;99847.88;5023524;28;20029;-80
2022/02/16 04:17:04;;;;;;;0.77;0.77;;;;;;;11.33;72.01;99845.00;5021153;28;20033;-78
2022/02/16 04:19:31;;;;;;;0.10;0.10;;;;;;;11.41;71.98;99838.53;5018702;28;20514;-78
2022/02/16 04:21:57;;;;;;;0.08;0.08;;;;;;;11.42;71.62;99834.97;5017035;28;20417;-78
2022/02/16 04:24:23;;;;;;;0.15;0.15;;;;;;;11.46;71.77;99832.13;5009354;28;20029;-77
2022/02/16 04:26:50;;;;;;;0.30;0.30;;;;;;;11.49;71.54;99818.75;5016793;28;20084;-81
2022/02/16 04:29:16;;;;;;;0.10;0.10;;;;;;;11.44;71.75;99812.75;5016723;28;20034;-80
2022/02/16 04:31:43;;;;;;;0.10;0.10;;;;;;;11.39;72.01;99813.84;5027415;28;20029;-81
2022/02/16 04:34:09;;;;;;;0.10;0.10;;;;;;;11.27;72.45;99800.16;5015781;28;20496;-79
2022/02/16 04:36:35;;;;;;;0.10;0.10;;;;;;;11.38;72.27;99789.13;5027819;28;20026;-81
2022/02/16 04:39:02;;;;;;;0.50;0.50;;;;;;;11.48;72.12;99787.81;5021790;28;20045;-79
2022/02/16 04:41:29;;;;;;;0.20;0.20;;;;;;;11.42;72.58;99792.53;5020090;28;20042;-80
2022/02/16 04:43:55;;;;;;;0.10;0.10;;;;;;;11.39;72.62;99761.69;5026250;28;20037;-80
2022/02/16 04:46:21;;;;;;;0.00;0.00;;;;;;;11.53;72.25;99761.13;5020538;28;20044;-80
2022/02/16 04:48:47;;;;;;;0.10;0.10;;;;;;;11.39;73.01;99751.09;5025710;28;20469;-80
2022/02/16 04:51:13;;;;;;;0.10;0.10;;;;;;;11.45;72.69;99747.28;5023195;28;20302;-82
2022/02/16 04:53:40;;;;;;;0.10;0.10;;;;;;;11.39;73.19;99739.59;5018481;28;20037;-80
2022/02/16 04:56:07;;;;;;;3.20;0.63;;;;;;;11.41;72.86;99740.41;5019189;28;20042;-82
2022/02/16 04:58:34;;;;;;;0.05;0.05;;;;;;;11.31;73.67;99727.53;5021647;28;20030;-81
2022/02/16 05:01:00;;;;;;;0.25;0.25;;;;;;;11.50;73.24;99726.75;5023592;28;20030;-79
2022/02/16 05:03:27;;;;;;;0.40;0.40;;;;;;;11.48;72.98;99723.31;5024705;28;20026;-79
2022/02/16 05:05:53;;;;;;;0.10;0.10;;;;;;;11.49;73.35;99715.28;5015902;28;20038;-79
2022/02/16 05:08:19;;;;;;;0.10;0.10;;;;;;;11.46;73.44;99717.19;5020627;28;20548;-79
2022/02/16 05:10:45;;;;;;;0.10;0.10;;;;;;;11.49;73.49;99714.44;5012423;28;20116;-81
2022/02/16 05:13:11;;;;;;;0.10;0.10;;;;;;;11.48;73.38;99710.06;5012344;28;20033;-79
2022/02/16 05:15:37;;;;;;;0.10;0.10;;;;;;;11.49;73.34;99703.81;5012682;28;20030;-79
2022/02/16 05:18:03;;;;;;;0.03;0.03;;;;;;;11.46;73.52;99703.94;5018044;28;20037;-79
2022/02/16 05:20:30;;;;;;;0.10;0.10;;;;;;;11.41;73.72;99696.16;5017595;28;20037;-78
2022/02/16 05:22:56;;;;;;;0.13;0.13;;;;;;;11.52;73.58;99684.25;5011935;28;20030;-78
2022/02/16 05:25:22;;;;;;;0.10;0.10;;;;;;;11.48;73.55;99688.84;5012257;28;20048;-79
2022/02/16 05:27:48;;;;;;;0.05;0.05;;;;;;;11.50;73.95;99684.31;5012187;28;20037;-79
2022/02/16 05:30:14;;;;;;;0.10;0.10;;;;;;;11.52;73.62;99671.84;5012315;28;20417;-79
2022/02/16 05:32:41;;;;;;;0.20;0.20;;;;;;;11.51;73.72;99670.13;5010499;28;20085;-78
2022/02/16 05:35:10;;;;;;;0.10;0.10;;;;;;;11.52;73.62;99666.53;5012168;28;20080;-80
2022/02/16 05:37:37;;;;;;;0.10;0.10;;;;;;;11.63;73.86;99652.81;5012345;28;20392;-78
2022/02/16 05:40:04;;;;;;;0.10;0.10;;;;;;;11.66;73.30;99647.38;5013108;28;20424;-78
2022/02/16 05:42:31;;;;;;;0.03;0.03;;;;;;;11.68;73.85;99642.03;5015278;28;20046;-78
2022/02/16 05:44:57;;;;;;;0.28;0.28;;;;;;;11.67;73.25;99632.34;5015938;28;20069;-79
2022/02/16 05:47:23;;;;;;;0.10;0.10;;;;;;;11.60;73.82;99616.69;5015448;28;20476;-78
2022/02/16 05:49:49;;;;;;;0.82;0.82;;;;;;;11.52;74.11;99610.84;5014741;28;20069;-79
2022/02/16 05:52:15;;;;;;;0.40;0.40;;;;;;;11.67;74.01;99611.09;5013798;28;20038;-79
2022/02/16 05:54:42;;;;;;;0.10;0.10;;;;;;;11.67;73.39;99609.31;5015642;28;20124;-78
2022/02/16 05:57:08;;;;;;;0.00;0.00;;;;;;;11.64;74.28;99605.00;5015310;28;20022;-78
2022/02/16 05:59:35;;;;;;;0.10;0.10;;;;;;;11.67;74.19;99600.50;5014990;28;20660;-78
2022/02/16 06:02:03;;;;;;;0.10;0.10;;;;;;;11.65;74.45;99604.06;5014946;28;20034;-79
2022/02/16 06:04:36;;;;;;;0.20;0.20;;;;;;;11.71;73.90;99604.72;5015388;28;20037;-79
2022/02/16 06:07:03;;;;;;;0.52;0.52;;;;;;;11.75;73.90;99607.19;5015404;28;20389;-78
2022/02/16 06:09:29;;;;;;;0.10;0.10;;;;;;;11.72;74.00;99603.81;5015090;28;20022;-79
2022/02/16 06:11:55;;;;;;;0.10;0.10;;;;;;;11.65;74.46;99584.63;5014807;28;20045;-79
2022/02/16 06:14:22;;;;;;;0.10;0.10;;;;;;;11.64;74.88;99601.50;5014966;28;20250;-78
2022/02/16 06:16:48;;;;;;;0.10;0.10;;;;;;;11.64;74.36;99612.97;5014244;28;20034;-77
2022/02/16 06:19:14;;;;;;;0.10;0.10;;;;;;;11.73;74.26;99602.88;5017624;28;20026;-79
2022/02/16 06:21:41;;;;;;;0.10;0.10;;;;;;;11.70;74.55;99589.72;5009873;28;20385;-79
2022/02/16 06:24:08;;;;;;;0.10;0.10;;;;;;;11.73;74.69;99626.75;5014997;28;20044;-78
2022/02/16 06:26:34;;;;;;;0.10;0.10;;;;;;;11.73;74.78;99600.22;5017856;28;20026;-78
2022/02/16 06:29:00;;;;;;;0.10;0.10;;;;;;;11.80;74.32;99612.25;5014417;28;20038;-79
2022/02/16 06:31:27;;;;;;;0.00;0.00;;;;;;;11.82;74.32;99610.41;5013602;28;20033;-78
2022/02/16 06:33:53;;;;;;;0.80;0.80;;;;;;;11.77;74.44;99607.09;5009878;28;20060;-79
2022/02/16 06:36:19;;;;;;;0.50;0.50;;;;;;;11.76;74.73;99589.44;5012577;28;20080;-78
2022/02/16 06:38:45;;;;;;;0.10;0.10;;;;;;;11.85;74.12;99599.66;5008417;28;20108;-78
2022/02/16 06:41:12;;;;;;;0.10;0.10;;;;;;;11.73;74.52;99593.09;5014010;28;20048;-78
2022/02/16 06:43:38;;;;;;;0.10;0.10;;;;;;;11.82;74.08;99592.72;5011499;28;20026;-78
2022/02/16 06:46:04;;;;;;;0.10;0.10;;;;;;;11.81;74.51;99598.94;5009513;28;20452;-77
2022/02/16 06:48:30;;;;;;;0.10;0.10;;;;;;;11.86;73.94;99596.06;5017511;28;20034;-77
2022/02/16 06:50:56;;;;;;;0.10;0.10;;;;;;;11.88;74.02;99599.50;5017526;28;20030;-78
2022/02/16 06:53:22;;;;;;;0.05;0.05;;;;;;;11.88;74.50;99612.78;5027583;28;20041;-78
2022/02/16 06:55:49;;;;;;;0.10;0.10;;;;;;;11.86;74.58;99611.13;5013529;28;20496;-79
2022/02/16 06:58:16;;;;;;;0.10;0.10;;;;;;;11.95;73.71;99606.28;5013813;28;20045;-78
2022/02/16 07:00:42;;;;;;;0.10;0.10;;;;;;;11.98;74.01;99616.78;5014018;28;20040;-78
2022/02/16 07:03:08;;;;;;;0.00;0.00;;;;;;;12.02;73.95;99619.31;5020791;28;20497;-78
2022/02/16 07:05:34;;;;;;;0.10;0.10;;;;;;;11.96;74.25;99612.47;5014278;28;20052;-78
2022/02/16 07:08:00;;;;;;;0.10;0.10;;;;;;;11.97;74.14;99620.38;5026992;28;20044;-77
2022/02/16 07:10:26;;;;;;;0.10;0.10;;;;;;;12.00;74.52;99606.09;5037925;22;20476;-76
2022/02/16 07:12:53;;;;;;;0.10;0.10;;;;;;;11.93;74.42;99602.81;4999926;28;20042;-76
2022/02/16 07:15:21;;;;;;;0.10;0.10;;;;;;;11.97;74.59;99608.88;4997991;28;21488;-76
2022/02/16 07:17:47;;;;;;;0.08;0.08;;;;;;;11.82;75.22;99607.75;5011650;28;20148;-81
2022/02/16 07:20:15;;;;;;;0.05;0.05;;;;;;;11.98;74.73;99603.50;5003853;28;20042;-77
2022/02/16 07:22:44;;;;;;;0.10;0.10;;;;;;;12.09;74.79;99603.00;5006426;28;20057;-78
2022/02/16 07:25:11;;;;;;;0.15;0.15;;;;;;;12.03;74.56;99598.00;5004174;28;20100;-77
2022/02/16 07:27:37;;;;;;;0.10;0.10;;;;;;;12.04;74.35;99596.22;5010608;28;20488;-77
2022/02/16 07:30:06;;;;;;;0.10;0.10;;;;;;;12.13;74.46;99624.97;5007527;28;20603;-77
2022/02/16 07:32:33;;;;;;;0.10;0.10;;;;;;;12.12;74.30;99618.81;5008072;28;20036;-77
2022/02/16 07:34:59;;;;;;;0.10;0.10;;;;;;;12.04;74.97;99606.84;5005754;28;20041;-77
2022/02/16 07:37:25;;;;;;;0.10;0.10;;;;;;;12.21;74.72;99622.84;5006467;28;20029;-76
2022/02/16 07:39:51;;;;;;;0.10;0.10;;;;;;;12.13;74.95;99624.97;5007611;28;20548;-77
2022/02/16 07:42:17;;;;;;;0.10;0.10;;;;;;;12.27;75.20;99616.38;5008047;28;20034;-77
2022/02/16 07:44:44;;;;;;;0.10;0.10;;;;;;;12.34;74.53;99607.19;5005119;28;20029;-77
2022/02/16 07:47:10;;;;;;;0.10;0.10;;;;;;;12.40;74.49;99622.84;5008510;28;20030;-77
2022/02/16 07:49:36;;;;;;;0.10;0.10;;;;;;;12.45;74.55;99631.44;5008951;28;20026;-77
2022/02/16 07:52:03;;;;;;;0.10;0.10;;;;;;;12.53;74.43;99644.34;5009246;28;20034;-77
2022/02/16 07:54:30;;;;;;;0.10;0.10;;;;;;;12.55;74.69;99647.81;5009331;28;20359;-78
2022/02/16 07:56:56;;;;;;;0.00;0.00;;;;;;;12.51;74.75;99656.88;5004334;28;20045;-76
2022/02/16 07:59:23;;;;;;;0.43;0.43;;;;;;;12.66;74.80;99657.06;4993475;28;20469;-77
2022/02/16 08:01:50;;;;;;;0.08;0.08;;;;;;;12.70;74.68;99661.31;4995583;28;20084;-77
2022/02/16 08:04:16;;;;;;;0.10;0.10;;;;;;;12.67;74.86;99653.47;4993001;28;20066;-77
2022/02/16 08:06:45;;;;;;;0.05;0.05;;;;;;;12.77;74.55;99676.88;5011269;28;20037;-74
2022/02/16 08:09:12;;;;;;;0.20;0.20;;;;;;;12.78;74.57;99657.34;4996499;28;20484;-77
2022/02/16 08:11:39;;;;;;;0.10;0.10;;;;;;;12.89;74.73;99667.44;4996349;28;20050;-75
2022/02/16 08:14:06;;;;;;;0.10;0.10;;;;;;;12.86;74.65;99688.00;4995181;28;20397;-75
2022/02/16 08:16:34;;;;;;;0.10;0.10;;;;;;;12.88;74.68;99665.72;5008036;28;20377;-77
2022/02/16 08:19:01;;;;;;;0.17;0.17;;;;;;;12.85;75.24;99705.75;5012405;28;20081;-78
2022/02/16 08:21:27;;;;;;;0.10;0.10;;;;;;;13.03;74.17;99665.91;5011428;28;20105;-74
2022/02/16 08:23:53;;;;;;;0.20;0.20;;;;;;;13.00;74.02;99663.44;5012568;28;20033;-78
2022/02/16 08:26:19;;;;;;;0.95;0.95;;;;;;;13.05;73.92;99662.25;5011086;28;20378;-76
2022/02/16 08:28:45;;;;;;;0.10;0.10;;;;;;;13.09;74.02;99660.31;5006701;28;20117;-75
2022/02/16 08:31:12;;;;;;;0.32;0.32;;;;;;;13.15;73.36;99652.00;5009621;28;20123;-75
2022/02/16 08:33:38;;;;;;;0.03;0.03;;;;;;;13.11;73.27;99671.72;5000250;28;20034;-75
2022/02/16 08:36:05;;;;;;;0.25;0.25;;;;;;;13.19;73.61;99636.78;4998596;28;20026;-75
2022/02/16 08:38:31;;;;;;;0.05;0.05;;;;;;;13.32;73.38;99642.31;4993648;28;20128;-76
2022/02/16 08:40:58;;;;;;;0.00;0.00;;;;;;;13.36;73.08;99651.88;5046418;23;20056;-78
2022/02/16 08:43:26;;;;;;;0.10;0.10;;;;;;;13.43;72.93;99634.69;5050337;28;20032;-77
2022/02/16 08:45:53;;;;;;;0.10;0.10;;;;;;;13.46;72.37;99649.63;5049247;28;20029;-79
2022/02/16 08:48:23;;;;;;;0.10;0.10;;;;;;;13.35;73.04;99652.81;5043066;28;20112;-80
2022/02/16 08:50:50;;;;;;;0.20;0.20;;;;;;;13.42;72.16;99659.56;5050084;28;20468;-80
2022/02/16 08:53:16;;;;;;;4.03;1.50;;;;;;;13.54;72.35;99656.28;5051437;28;20041;-77
2022/02/16 08:55:43;;;;;;;0.63;0.63;;;;;;;13.53;71.94;99657.25;5049382;28;20033;-78
2022/02/16 08:58:09;;;;;;;0.10;0.10;;;;;;;13.59;72.12;99650.72;5049202;28;20029;-78
2022/02/16 09:00:36;;;;;;;0.25;0.25;;;;;;;13.66;71.76;99656.63;5050059;28;20024;-78
2022/02/16 09:03:03;;;;;;;0.17;0.17;;;;;;;13.70;72.10;99661.66;5049376;28;20108;-78
2022/02/16 09:05:29;;;;;;;0.20;0.20;;;;;;;13.78;71.53;99653.28;5048156;28;20095;-77
2022/02/16 09:07:55;;;;;;;0.10;0.10;;;;;;;13.69;71.91;99657.28;5050662;28;20036;-78
2022/02/16 09:10:21;;;;;;;0.10;0.10;;;;;;;13.67;72.12;99675.16;5048748;28;20025;-78
2022/02/16 09:12:47;;;;;;;0.10;0.10;;;;;;;13.84;71.46;99671.59;5049943;28;20093;-79
2022/02/16 09:15:14;;;;;;;0.10;0.10;;;;;;;13.93;70.97;99701.34;5051578;28;20021;-79
2022/02/16 09:17:40;;;;;;;0.10;0.10;;;;;;;13.96;71.22;99670.09;5050571;28;20032;-78
2022/02/16 09:20:07;;;;;;;0.10;0.10;;;;;;;14.05;70.81;99674.09;5053189;28;20033;-78
2022/02/16 09:22:34;;;;;;;0.20;0.20;;;;;;;14.06;70.38;99691.78;5053729;28;20025;-78
2022/02/16 09:25:00;;;;;;;0.13;0.13;;;;;;;14.11;70.38;99678.22;5054559;28;20104;-79
2022/02/16 09:27:26;;;;;;;0.10;0.10;;;;;;;14.08;70.30;99679.22;5054963;28;20074;-79
2022/02/16 09:29:53;;;;;;;0.10;0.10;;;;;;;14.18;69.79;99659.16;5054500;28;20108;-79
2022/02/16 09:32:21;;;;;;;0.10;0.10;;;;;;;14.30;69.71;99656.78;5053435;28;20037;-79
2022/02/16 09:34:47;;;;;;;0.63;0.63;;;;;;;14.35;69.48;99658.22;5054100;28;20129;-80
2022/02/16 09:37:13;;;;;;;0.20;0.20;;;;;;;14.37;69.36;99659.03;5051288;28;20025;-79
2022/02/16 09:39:40;;;;;;;0.10;0.10;;;;;;;14.49;69.23;99651.28;5051759;28;20048;-79
2022/02/16 09:42:09;;;;;;;7.10;2.55;;;;;;;14.62;69.12;99657.66;5052655;28;20067;-79
2022/02/16 09:47:30;;;;;;;0.10;0.10;;;;;;;14.72;68.39;99674.03;5101603;27;20404;-80
2022/02/16 09:49:57;;;;;;;0.10;0.10;;;;;;;14.62;68.80;99667.47;5101655;28;20521;-80
2022/02/16 09:52:23;;;;;;;0.10;0.10;;;;;;;14.62;68.63;99670.16;5107454;28;20062;-80
2022/02/16 09:54:50;;;;;;;0.10;0.10;;;;;;;14.60;68.38;99693.34;5100227;28;20372;-78
2022/02/16 09:57:17;;;;;;;0.10;0.10;;;;;;;14.71;68.35;99665.16;5093698;28;20028;-79
2022/02/16 09:59:43;;;;;;;0.10;0.10;;;;;;;14.83;67.92;99641.44;5091426;28;20070;-79
2022/02/16 10:02:12;;;;;;;0.10;0.10;;;;;;;14.85;68.01;99648.41;5110075;28;20368;-80
2022/02/16 10:04:41;;;;;;;0.68;0.68;;;;;;;14.86;67.80;99658.09;5094153;28;20039;-79
2022/02/16 10:07:25;;;;;;;1.85;1.75;;;;;;;14.97;67.53;99675.31;5084527;28;20028;-78
2022/02/16 10:09:52;;;;;;;0.10;0.10;;;;;;;14.85;67.69;99683.06;5086770;22;20059;-77
2022/02/16 10:12:19;;;;;;;0.30;0.30;;;;;;;14.84;67.77;99676.03;5038609;28;20171;-76
2022/02/16 10:14:46;;;;;;;0.10;0.10;;;;;;;14.86;67.51;99658.09;5049041;28;20472;-76
2022/02/16 10:17:22;;;;;;;0.10;0.10;;;;;;;14.82;67.76;99645.06;5047397;28;20124;-76
2022/02/16 10:19:51;;;;;;;0.10;0.10;;;;;;;14.83;67.71;99644.13;5049024;28;20032;-76
2022/02/16 10:22:19;;;;;;;0.43;0.43;;;;;;;14.72;67.79;99620.72;5067199;28;20037;-76
2022/02/16 10:24:46;;;;;;;0.45;0.45;;;;;;;14.72;67.50;99621.56;5067559;28;20131;-76
2022/02/16 10:27:13;;;;;;;0.10;0.10;;;;;;;14.56;67.97;99637.53;5066198;28;20040;-76
2022/02/16 10:29:41;;;;;;;0.30;0.30;;;;;;;14.60;67.68;99626.72;5066011;28;20132;-76
2022/02/16 10:32:09;;;;;;;0.13;0.13;;;;;;;14.42;68.22;99640.13;5066989;28;20043;-77
2022/02/16 10:34:57;;;;;;;1.33;1.30;;;;;;;14.62;67.56;99641.66;5066987;28;20029;-75
2022/02/16 10:37:40;;;;;;;0.28;0.28;;;;;;;14.49;68.34;99622.84;5061782;28;20037;-76
2022/02/16 10:40:16;;;;;;;0.10;0.10;;;;;;;14.43;68.18;99612.53;5058248;28;20622;-76
2022/02/16 10:42:59;;;;;;;1.25;1.15;;;;;;;14.47;68.07;99621.22;5061197;28;20033;-76
2022/02/16 10:45:29;;;;;;;0.25;0.25;;;;;;;14.22;68.61;99628.75;5059698;28;20029;-76
2022/02/16 10:50:49;;;;;;;0.30;0.30;;;;;;;14.33;68.42;99644.16;5060444;27;20424;-76
2022/02/16 10:53:26;;;;;;;0.10;0.10;;;;;;;14.31;68.38;99637.19;5061601;28;20052;-76
2022/02/16 10:55:53;;;;;;;0.75;0.75;;;;;;;14.24;68.33;99637.53;5052314;28;20033;-76
2022/02/16 10:58:22;;;;;;;0.15;0.15;;;;;;;14.29;68.00;99645.25;5055956;28;20036;-76
2022/02/16 11:00:51;;;;;;;18.73;2.63;;;;;;;14.31;67.98;99646.03;5062359;28;20025;-76
2022/02/16 11:03:36;;;;;;;0.98;0.93;;;;;;;14.39;68.12;99659.81;5057065;28;20033;-76
2022/02/16 11:06:07;;;;;;;0.10;0.10;;;;;;;14.18;68.33;99680.47;5050811;28;20056;-76
2022/02/16 11:08:36;;;;;;;0.20;0.20;;;;;;;14.22;68.12;99665.19;5059638;28;20021;-76
2022/02/16 11:11:04;;;;;;;0.10;0.10;;;;;;;14.17;68.20;99678.75;5063634;28;20028;-76
2022/02/16 11:13:33;;;;;;;0.30;0.30;;;;;;;14.16;68.35;99674.38;5066414;28;20103;-76
2022/02/16 11:16:01;;;;;;;0.20;0.20;;;;;;;14.09;68.45;99670.28;5063263;28;20040;-76
2022/02/16 11:18:30;;;;;;;0.10;0.10;;;;;;;14.18;67.90;99648.50;5049575;28;20124;-76
2022/02/16 11:21:15;;;;;;;0.43;0.43;;;;;;;14.41;67.66;99633.06;5048814;28;20034;-76
2022/02/16 11:23:46;;;;;;;1.23;1.23;;;;;;;14.38;67.50;99627.88;5057768;28;20036;-76
2022/02/16 11:26:38;;;;;;;0.40;0.40;;;;;;;14.49;67.63;99641.50;5067723;28;20434;-76
2022/02/16 11:29:27;;;;;;;0.10;0.10;;;;;;;14.24;68.01;99650.84;5060975;28;20037;-76
2022/02/16 11:32:13;;;;;;;0.57;0.57;;;;;;;14.24;67.67;99647.31;5058641;28;20033;-76
2022/02/16 11:34:41;;;;;;;0.17;0.17;;;;;;;14.29;67.76;99636.41;5055715;28;20032;-76
2022/02/16 11:37:08;;;;;;;0.10;0.10;;;;;;;14.12;68.25;99653.28;5063191;28;20028;-76
2022/02/16 11:42:53;;;;;;;0.20;0.20;;;;;;;14.27;67.58;99639.16;5056047;28;20410;-78